createdAt,value
2019-02-14T00:00:03.085Z,440.3
2019-02-14T00:01:05.274Z,440.7
2019-02-14T00:02:07.419Z,440.3
2019-02-14T00:03:09.841Z,440.4
2019-02-14T00:04:12.006Z,440
2019-02-14T00:06:18.873Z,439.9
2019-02-14T00:07:21.315Z,439.8
2019-02-14T00:08:23.748Z,440.1
2019-02-14T00:09:26.178Z,440
2019-02-14T00:10:28.319Z,439.9
2019-02-14T00:11:30.188Z,440.1
2019-02-14T00:12:32.340Z,440.3
2019-02-14T00:13:34.766Z,440.3
2019-02-14T00:14:37.219Z,440.3
2019-02-14T00:15:39.659Z,440.3
2019-02-14T00:16:41.511Z,440.1
2019-02-14T00:17:43.658Z,439.8
2019-02-14T00:18:45.787Z,440.1
2019-02-14T00:19:48.205Z,439.8
2019-02-14T00:20:50.364Z,440.1
2019-02-14T00:21:52.783Z,440.1
2019-02-14T00:22:54.419Z,439.9
2019-02-14T00:23:56.850Z,439.5
2019-02-14T00:24:59.266Z,439.6
2019-02-14T00:26:01.135Z,439.2
2019-02-14T00:27:03.566Z,439.3
2019-02-14T00:28:05.993Z,439.5
2019-02-14T00:29:08.446Z,439.4
2019-02-14T00:30:10.602Z,439.6
2019-02-14T00:31:12.778Z,440
2019-02-14T00:32:15.209Z,439.9
2019-02-14T00:33:17.627Z,440.5
2019-02-14T00:34:20.043Z,440.3
2019-02-14T00:36:27.453Z,440.3
2019-02-14T00:37:29.595Z,440.8
2019-02-14T00:38:31.461Z,440.3
2019-02-14T00:39:33.610Z,441
2019-02-14T00:40:36.025Z,440.8
2019-02-14T00:41:38.465Z,441.2
2019-02-14T00:42:40.879Z,440.6
2019-02-14T00:43:42.738Z,441.1
2019-02-14T00:44:45.156Z,441.2
2019-02-14T00:45:47.581Z,440.8
2019-02-14T00:46:50.015Z,441.1
2019-02-14T00:47:52.155Z,440.8
2019-02-14T00:48:54.333Z,440.9
2019-02-14T00:49:56.758Z,441.5
2019-02-14T00:50:58.886Z,441.2
2019-02-14T00:52:01.335Z,441
2019-02-14T00:53:03.495Z,440.7
2019-02-14T00:54:05.927Z,440.7
2019-02-14T00:55:08.099Z,440.9
2019-02-14T00:56:10.250Z,440.7
2019-02-14T00:57:12.671Z,440.8
2019-02-14T00:58:15.099Z,440.7
2019-02-14T00:59:17.527Z,440.6
2019-02-14T01:00:19.958Z,440.7
2019-02-14T01:01:22.130Z,441
2019-02-14T01:02:23.989Z,441
2019-02-14T01:03:26.173Z,440.8
2019-02-14T01:04:28.595Z,440.8
2019-02-14T01:06:36.015Z,440.2
2019-02-14T01:07:37.903Z,440.1
2019-02-14T01:08:40.327Z,439.9
2019-02-14T01:09:42.746Z,440.3
2019-02-14T01:10:44.907Z,440.3
2019-02-14T01:11:47.329Z,440.7
2019-02-14T01:12:49.497Z,440.9
2019-02-14T01:13:51.360Z,440.8
2019-02-14T01:14:53.505Z,441.1
2019-02-14T01:15:55.661Z,441.4
2019-02-14T01:16:58.123Z,441.3
2019-02-14T01:18:00.018Z,441.4
2019-02-14T01:19:02.178Z,441.4
2019-02-14T01:20:04.606Z,441.7
2019-02-14T01:21:07.043Z,441.8
2019-02-14T01:22:09.184Z,441.9
2019-02-14T01:23:11.055Z,442.2
2019-02-14T01:24:13.212Z,442.7
2019-02-14T01:25:15.099Z,442.9
2019-02-14T01:26:17.529Z,443.1
2019-02-14T01:27:19.683Z,443.6
2019-02-14T01:28:21.837Z,443.5
2019-02-14T01:29:24.262Z,443.1
2019-02-14T01:30:26.420Z,443.2
2019-02-14T01:31:28.026Z,443.4
2019-02-14T01:32:30.459Z,443.7
2019-02-14T01:33:32.351Z,443.6
2019-02-14T01:34:34.773Z,443.8
2019-02-14T01:36:42.177Z,443.7
2019-02-14T01:37:44.340Z,443.3
2019-02-14T01:38:46.512Z,443.9
2019-02-14T01:39:48.936Z,443.3
2019-02-14T01:40:51.374Z,443.3
2019-02-14T01:41:53.798Z,443.9
2019-02-14T01:42:55.950Z,443.6
2019-02-14T01:43:58.371Z,443.9
2019-02-14T01:45:00.803Z,444
2019-02-14T01:46:02.985Z,443
2019-02-14T01:47:05.144Z,443.9
2019-02-14T01:48:07.564Z,443.9
2019-02-14T01:49:09.983Z,444
2019-02-14T01:50:12.409Z,443.8
2019-02-14T01:51:14.845Z,444.2
2019-02-14T01:52:16.993Z,444.5
2019-02-14T01:53:19.149Z,444.8
2019-02-14T01:54:21.042Z,444.8
2019-02-14T01:55:23.181Z,445.1
2019-02-14T01:56:25.310Z,445.4
2019-02-14T01:57:27.733Z,445.4
2019-02-14T01:58:30.159Z,445.9
2019-02-14T01:59:32.312Z,445.3
2019-02-14T02:00:34.734Z,445.9
2019-02-14T02:01:37.173Z,446
2019-02-14T02:02:39.041Z,446.1
2019-02-14T02:03:41.473Z,445.9
2019-02-14T02:04:43.897Z,445.8
2019-02-14T02:06:51.293Z,446.1
2019-02-14T02:07:53.442Z,446.4
2019-02-14T02:08:55.890Z,446.2
2019-02-14T02:09:58.043Z,446.5
2019-02-14T02:11:00.191Z,446.2
2019-02-14T02:12:02.620Z,446.1
2019-02-14T02:13:05.041Z,446.3
2019-02-14T02:14:07.460Z,446.3
2019-02-14T02:15:09.611Z,446.6
2019-02-14T02:16:12.030Z,446.5
2019-02-14T02:17:14.464Z,446.5
2019-02-14T02:18:16.621Z,446.5
2019-02-14T02:19:19.046Z,446.2
2019-02-14T02:20:21.201Z,446.7
2019-02-14T02:21:23.644Z,446.8
2019-02-14T02:22:25.805Z,447.2
2019-02-14T02:23:27.950Z,447.2
2019-02-14T02:24:30.113Z,447.4
2019-02-14T02:25:31.694Z,447.2
2019-02-14T02:26:34.134Z,447.4
2019-02-14T02:27:36.279Z,447.2
2019-02-14T02:28:38.442Z,447.6
2019-02-14T02:29:40.883Z,447.3
2019-02-14T02:30:42.744Z,447.9
2019-02-14T02:31:45.192Z,447.7
2019-02-14T02:32:47.616Z,448.1
2019-02-14T02:33:50.107Z,447.9
2019-02-14T02:34:52.527Z,447.7
2019-02-14T02:36:59.644Z,447.8
2019-02-14T02:38:01.781Z,447.7
2019-02-14T02:39:04.229Z,447.7
2019-02-14T02:40:06.660Z,447.6
2019-02-14T02:41:09.085Z,447.6
2019-02-14T02:42:11.509Z,447.2
2019-02-14T02:43:13.670Z,447.3
2019-02-14T02:44:16.094Z,447
2019-02-14T02:45:18.517Z,446.9
2019-02-14T02:46:20.975Z,446.5
2019-02-14T02:47:23.128Z,446.7
2019-02-14T02:48:25.571Z,446.4
2019-02-14T02:50:33.614Z,446.2
2019-02-14T02:51:35.768Z,446.2
2019-02-14T02:52:37.929Z,446
2019-02-14T02:53:40.088Z,445.8
2019-02-14T02:54:42.224Z,445.9
2019-02-14T02:55:44.410Z,445.7
2019-02-14T02:56:46.839Z,445.3
2019-02-14T02:57:49.258Z,445.4
2019-02-14T02:58:51.442Z,445.7
2019-02-14T02:59:53.860Z,446.1
2019-02-14T03:00:56.102Z,446.2
2019-02-14T03:01:58.397Z,446.2
2019-02-14T03:03:00.564Z,446
2019-02-14T03:04:02.733Z,446.3
2019-02-14T03:05:04.892Z,446.3
2019-02-14T03:07:12.021Z,445.6
2019-02-14T03:08:14.155Z,445.4
2019-02-14T03:09:16.330Z,445.2
2019-02-14T03:10:18.750Z,445.1
2019-02-14T03:11:21.244Z,445
2019-02-14T03:12:22.843Z,444.8
2019-02-14T03:13:24.980Z,444.8
2019-02-14T03:14:27.155Z,444.9
2019-02-14T03:15:29.308Z,445
2019-02-14T03:16:31.744Z,445.2
2019-02-14T03:17:33.621Z,445
2019-02-14T03:18:35.822Z,445.3
2019-02-14T03:19:38.250Z,445.4
2019-02-14T03:20:40.402Z,445.5
2019-02-14T03:21:42.562Z,445.1
2019-02-14T03:22:44.708Z,445.2
2019-02-14T03:23:47.144Z,445
2019-02-14T03:24:49.306Z,445
2019-02-14T03:25:51.736Z,444.8
2019-02-14T03:26:54.039Z,444.5
2019-02-14T03:27:56.460Z,444.2
2019-02-14T03:28:58.882Z,444.3
2019-02-14T03:30:01.392Z,444.5
2019-02-14T03:31:03.835Z,444.3
2019-02-14T03:32:05.998Z,444
2019-02-14T03:33:08.415Z,443.8
2019-02-14T03:34:10.570Z,443.7
2019-02-14T03:35:12.723Z,443.8
2019-02-14T03:37:19.854Z,444.2
2019-02-14T03:38:21.979Z,444.2
2019-02-14T03:39:24.383Z,443.7
2019-02-14T03:40:26.524Z,443.8
2019-02-14T03:41:28.952Z,443.3
2019-02-14T03:42:30.813Z,443.4
2019-02-14T03:43:33.242Z,443
2019-02-14T03:44:35.667Z,443.1
2019-02-14T03:45:38.094Z,442.9
2019-02-14T03:46:40.522Z,442.6
2019-02-14T03:47:42.673Z,442.5
2019-02-14T03:48:44.812Z,442.2
2019-02-14T03:49:47.243Z,442.6
2019-02-14T03:50:49.402Z,442
2019-02-14T03:51:51.554Z,441.9
2019-02-14T03:52:53.684Z,441.9
2019-02-14T03:53:56.114Z,441.6
2019-02-14T03:54:58.538Z,441.5
2019-02-14T03:56:00.967Z,441.6
2019-02-14T03:57:03.391Z,442
2019-02-14T03:58:05.805Z,442.1
2019-02-14T03:59:07.675Z,442.1
2019-02-14T04:00:10.109Z,442.3
2019-02-14T04:01:12.010Z,443
2019-02-14T04:02:14.150Z,443
2019-02-14T04:03:16.290Z,443.4
2019-02-14T04:04:18.440Z,443.2
2019-02-14T04:05:20.327Z,443.2
2019-02-14T04:07:27.474Z,442.8
2019-02-14T04:08:29.948Z,443
2019-02-14T04:09:32.085Z,442.8
2019-02-14T04:10:34.521Z,442.8
2019-02-14T04:11:36.944Z,442.1
2019-02-14T04:12:39.098Z,442.3
2019-02-14T04:13:41.273Z,442.4
2019-02-14T04:14:43.424Z,441.6
2019-02-14T04:15:45.278Z,441.6
2019-02-14T04:16:47.698Z,441.6
2019-02-14T04:17:50.158Z,441.8
2019-02-14T04:18:52.310Z,441.5
2019-02-14T04:19:54.740Z,441.5
2019-02-14T04:20:57.093Z,441.3
2019-02-14T04:21:59.499Z,441.2
2019-02-14T04:23:01.924Z,441.5
2019-02-14T04:24:04.359Z,441.4
2019-02-14T04:25:06.782Z,441.7
2019-02-14T04:26:09.214Z,441.8
2019-02-14T04:27:11.642Z,442.1
2019-02-14T04:28:13.792Z,442.3
2019-02-14T04:29:15.953Z,441.6
2019-02-14T04:30:18.387Z,442.2
2019-02-14T04:31:20.825Z,442.2
2019-02-14T04:32:24.098Z,442.6
2019-02-14T04:33:26.375Z,442.7
2019-02-14T04:34:28.532Z,442.6
2019-02-14T04:35:30.682Z,442.7
2019-02-14T04:37:38.089Z,442.9
2019-02-14T04:38:40.519Z,442.8
2019-02-14T04:39:42.940Z,443
2019-02-14T04:40:45.086Z,443.2
2019-02-14T04:41:47.500Z,443.5
2019-02-14T04:42:49.931Z,443.7
2019-02-14T04:43:52.088Z,443.4
2019-02-14T04:44:54.514Z,443.8
2019-02-14T04:45:56.674Z,443.4
2019-02-14T04:46:58.843Z,443.6
2019-02-14T04:48:00.443Z,443.7
2019-02-14T04:49:02.876Z,443.6
2019-02-14T04:50:05.300Z,443.9
2019-02-14T04:51:07.195Z,444
2019-02-14T04:52:09.652Z,444.3
2019-02-14T04:53:12.078Z,444.1
2019-02-14T04:54:14.505Z,443.8
2019-02-14T04:55:16.939Z,444.2
2019-02-14T04:56:18.266Z,443.6
2019-02-14T04:57:20.424Z,443.7
2019-02-14T04:58:22.875Z,443.3
2019-02-14T04:59:25.024Z,443.2
2019-02-14T05:00:26.919Z,443.1
2019-02-14T05:01:29.346Z,442.8
2019-02-14T05:02:31.224Z,442.7
2019-02-14T05:03:33.377Z,442.6
2019-02-14T05:04:35.811Z,442
2019-02-14T05:05:38.234Z,442.3
2019-02-14T05:07:45.378Z,442.4
2019-02-14T05:08:47.250Z,442.5
2019-02-14T05:09:49.669Z,442.7
2019-02-14T05:10:51.803Z,442.8
2019-02-14T05:11:53.973Z,442.9
2019-02-14T05:12:56.106Z,442.9
2019-02-14T05:13:58.264Z,442.3
2019-02-14T05:15:00.822Z,441.6
2019-02-14T05:16:02.703Z,441.2
2019-02-14T05:17:04.897Z,441.1
2019-02-14T05:18:07.321Z,440.7
2019-02-14T05:19:09.454Z,440.3
2019-02-14T05:20:11.889Z,440.6
2019-02-14T05:21:14.316Z,440.3
2019-02-14T05:22:16.744Z,441
2019-02-14T05:23:19.164Z,441
2019-02-14T05:24:21.619Z,440.8
2019-02-14T05:25:23.518Z,441.2
2019-02-14T05:26:25.944Z,440.9
2019-02-14T05:27:28.366Z,441.1
2019-02-14T05:28:30.534Z,441.3
2019-02-14T05:29:32.948Z,441.6
2019-02-14T05:30:35.384Z,441.2
2019-02-14T05:31:39.540Z,440.9
2019-02-14T05:32:42.003Z,440.3
2019-02-14T05:33:43.906Z,440.2
2019-02-14T05:34:46.339Z,440.5
2019-02-14T05:35:48.210Z,440.4
2019-02-14T05:37:55.620Z,440.2
2019-02-14T05:38:58.043Z,440
2019-02-14T05:40:00.478Z,440
2019-02-14T05:41:02.897Z,440.2
2019-02-14T05:42:05.330Z,439.9
2019-02-14T05:43:07.485Z,439.3
2019-02-14T05:44:09.639Z,438.8
2019-02-14T05:45:12.054Z,438.4
2019-02-14T05:46:14.490Z,438.2
2019-02-14T05:47:16.650Z,438.4
2019-02-14T05:48:19.072Z,437.5
2019-02-14T05:49:21.243Z,438.1
2019-02-14T05:50:23.394Z,437.9
2019-02-14T05:51:25.829Z,438.2
2019-02-14T05:52:27.709Z,438.2
2019-02-14T05:53:30.123Z,438.2
2019-02-14T05:54:32.275Z,438.8
2019-02-14T05:55:34.703Z,438.5
2019-02-14T05:56:36.569Z,438.4
2019-02-14T05:57:39.001Z,438.6
2019-02-14T05:58:41.440Z,438.4
2019-02-14T05:59:43.608Z,438.3
2019-02-14T06:00:45.486Z,438.3
2019-02-14T06:01:47.626Z,438.6
2019-02-14T06:02:49.513Z,438.8
2019-02-14T06:03:51.946Z,439
2019-02-14T06:04:54.101Z,439
2019-02-14T06:05:56.255Z,439
2019-02-14T06:08:03.664Z,439.1
2019-02-14T06:09:06.077Z,438.7
2019-02-14T06:10:08.513Z,438.5
2019-02-14T06:11:10.687Z,438.7
2019-02-14T06:12:13.121Z,438.4
2019-02-14T06:13:15.482Z,438.4
2019-02-14T06:14:17.907Z,438.4
2019-02-14T06:15:20.334Z,438.2
2019-02-14T06:16:24.375Z,438
2019-02-14T06:17:26.803Z,437.9
2019-02-14T06:18:28.701Z,438
2019-02-14T06:19:31.137Z,437.8
2019-02-14T06:20:33.307Z,437.5
2019-02-14T06:21:35.738Z,437.5
2019-02-14T06:22:38.164Z,437
2019-02-14T06:23:40.593Z,437.1
2019-02-14T06:24:42.443Z,437.4
2019-02-14T06:25:44.321Z,437.9
2019-02-14T06:26:46.742Z,438.2
2019-02-14T06:27:48.896Z,438
2019-02-14T06:28:51.053Z,438.3
2019-02-14T06:29:53.211Z,438.5
2019-02-14T06:30:55.062Z,438.7
2019-02-14T06:31:57.214Z,438.4
2019-02-14T06:32:59.361Z,438.3
2019-02-14T06:34:01.521Z,438.2
2019-02-14T06:35:03.956Z,437.6
2019-02-14T06:36:06.386Z,437.2
2019-02-14T06:38:13.798Z,436.7
2019-02-14T06:39:15.939Z,436.2
2019-02-14T06:40:18.355Z,436.1
2019-02-14T06:41:20.504Z,436.2
2019-02-14T06:42:22.386Z,436
2019-02-14T06:43:24.548Z,435.9
2019-02-14T06:44:26.976Z,436
2019-02-14T06:45:29.393Z,435.9
2019-02-14T06:46:31.264Z,436
2019-02-14T06:47:33.682Z,435.8
2019-02-14T06:48:36.100Z,435.9
2019-02-14T06:49:38.251Z,436
2019-02-14T06:50:40.686Z,436.3
2019-02-14T06:51:43.111Z,435.8
2019-02-14T06:52:45.533Z,435.9
2019-02-14T06:53:47.826Z,436
2019-02-14T06:54:50.292Z,435.8
2019-02-14T06:55:52.713Z,435.8
2019-02-14T06:56:55.151Z,435.2
2019-02-14T06:57:57.298Z,435.4
2019-02-14T06:58:59.737Z,435.3
2019-02-14T07:00:02.181Z,435
2019-02-14T07:01:04.610Z,434.9
2019-02-14T07:02:07.052Z,435.1
2019-02-14T07:03:09.249Z,434.8
2019-02-14T07:04:10.846Z,434.3
2019-02-14T07:05:13.009Z,433.9
2019-02-14T07:06:15.421Z,434.1
2019-02-14T07:08:22.822Z,434.5
2019-02-14T07:09:24.976Z,434.4
2019-02-14T07:10:27.395Z,434.9
2019-02-14T07:11:29.544Z,434.8
2019-02-14T07:12:31.705Z,435.2
2019-02-14T07:13:34.133Z,435.1
2019-02-14T07:14:36.302Z,434.7
2019-02-14T07:15:38.166Z,434.6
2019-02-14T07:16:40.606Z,434.3
2019-02-14T07:17:43.029Z,433.9
2019-02-14T07:18:45.171Z,433.7
2019-02-14T07:19:47.346Z,433.5
2019-02-14T07:20:49.501Z,433.5
2019-02-14T07:21:51.634Z,433.7
2019-02-14T07:22:53.785Z,433.2
2019-02-14T07:23:55.953Z,432.9
2019-02-14T07:24:58.106Z,433
2019-02-14T07:26:00.557Z,432.9
2019-02-14T07:27:02.720Z,432.8
2019-02-14T07:28:04.619Z,433.5
2019-02-14T07:29:06.775Z,433.7
2019-02-14T07:30:09.198Z,434.3
2019-02-14T07:31:11.643Z,434.9
2019-02-14T07:32:13.523Z,434.7
2019-02-14T07:33:15.395Z,434.9
2019-02-14T07:34:17.277Z,434.6
2019-02-14T07:35:19.432Z,434.2
2019-02-14T07:36:21.845Z,433.5
2019-02-14T07:38:29.293Z,433
2019-02-14T07:39:31.183Z,433.6
2019-02-14T07:40:33.075Z,433.3
2019-02-14T07:41:35.515Z,433.2
2019-02-14T07:42:37.407Z,433.3
2019-02-14T07:43:39.839Z,433.4
2019-02-14T07:44:42.006Z,433
2019-02-14T07:45:44.435Z,433
2019-02-14T07:46:46.609Z,432.8
2019-02-14T07:47:49.046Z,432.3
2019-02-14T07:48:51.486Z,432.8
2019-02-14T07:49:53.905Z,432.9
2019-02-14T07:50:56.344Z,433.2
2019-02-14T07:51:58.481Z,432.8
2019-02-14T07:53:00.645Z,432.9
2019-02-14T07:54:02.793Z,433
2019-02-14T07:55:05.096Z,432.9
2019-02-14T07:56:07.255Z,432.7
2019-02-14T07:57:09.679Z,432.8
2019-02-14T07:58:12.117Z,433.1
2019-02-14T07:59:14.271Z,433.2
2019-02-14T08:00:16.694Z,433
2019-02-14T08:01:18.865Z,433.3
2019-02-14T08:02:21.053Z,433
2019-02-14T08:03:23.207Z,433
2019-02-14T08:04:25.657Z,432.9
2019-02-14T08:05:28.089Z,433
2019-02-14T08:06:30.525Z,433.2
2019-02-14T08:08:37.670Z,433.4
2019-02-14T08:09:39.821Z,433.8
2019-02-14T08:10:41.990Z,433.5
2019-02-14T08:11:44.146Z,433.2
2019-02-14T08:12:46.569Z,433.6
2019-02-14T08:13:48.722Z,433.6
2019-02-14T08:14:51.147Z,433.9
2019-02-14T08:15:53.571Z,434.7
2019-02-14T08:16:55.747Z,434.8
2019-02-14T08:17:58.181Z,435.2
2019-02-14T08:19:01.738Z,435.3
2019-02-14T08:20:03.891Z,434.8
2019-02-14T08:21:06.050Z,434.6
2019-02-14T08:22:08.179Z,434.8
2019-02-14T08:23:10.315Z,434.7
2019-02-14T08:24:12.742Z,434.6
2019-02-14T08:25:14.940Z,435.2
2019-02-14T08:26:16.802Z,435.3
2019-02-14T08:27:18.934Z,435
2019-02-14T08:28:21.355Z,435.1
2019-02-14T08:29:23.223Z,434.8
2019-02-14T08:30:25.447Z,434.7
2019-02-14T08:31:27.863Z,434.8
2019-02-14T08:32:30.023Z,434.6
2019-02-14T08:33:32.174Z,434.2
2019-02-14T08:34:34.455Z,434.1
2019-02-14T08:35:36.642Z,434.2
2019-02-14T08:36:39.084Z,434.2
2019-02-14T08:38:46.485Z,434.5
2019-02-14T08:39:48.673Z,433.8
2019-02-14T08:40:51.096Z,434.5
2019-02-14T08:41:53.530Z,433.9
2019-02-14T08:42:55.861Z,433.8
2019-02-14T08:43:58.313Z,433.4
2019-02-14T08:45:00.454Z,433.3
2019-02-14T08:46:02.621Z,433.3
2019-02-14T08:47:05.053Z,433
2019-02-14T08:48:07.213Z,433
2019-02-14T08:49:09.292Z,432.5
2019-02-14T08:50:11.735Z,432.4
2019-02-14T08:51:13.916Z,432.5
2019-02-14T08:52:15.798Z,432.4
2019-02-14T08:53:17.679Z,432.4
2019-02-14T08:54:19.575Z,432.4
2019-02-14T08:55:22.015Z,432.6
2019-02-14T08:56:23.896Z,432.8
2019-02-14T08:57:26.318Z,432.6
2019-02-14T08:58:28.204Z,432.8
2019-02-14T08:59:30.651Z,432.5
2019-02-14T09:00:32.808Z,432.9
2019-02-14T09:01:35.233Z,432.4
2019-02-14T09:02:37.665Z,432.1
2019-02-14T09:03:39.812Z,432.4
2019-02-14T09:04:41.970Z,432.2
2019-02-14T09:05:44.401Z,432.4
2019-02-14T09:06:46.602Z,431.9
2019-02-14T09:08:54.025Z,432.2
2019-02-14T09:09:56.163Z,432.6
2019-02-14T09:10:58.373Z,432.8
2019-02-14T09:12:00.869Z,433
2019-02-14T09:13:02.788Z,433
2019-02-14T09:14:04.941Z,433.4
2019-02-14T09:15:07.377Z,433.1
2019-02-14T09:16:09.812Z,433.1
2019-02-14T09:17:11.675Z,433.4
2019-02-14T09:18:13.852Z,433.5
2019-02-14T09:19:16.278Z,433
2019-02-14T09:20:18.719Z,432.8
2019-02-14T09:21:20.914Z,432.9
2019-02-14T09:22:23.365Z,433
2019-02-14T09:23:25.793Z,433
2019-02-14T09:24:28.226Z,433.3
2019-02-14T09:25:30.369Z,433.2
2019-02-14T09:26:32.279Z,433.8
2019-02-14T09:27:34.721Z,433.4
2019-02-14T09:28:37.154Z,433.4
2019-02-14T09:29:39.586Z,433.6
2019-02-14T09:30:42.046Z,433.3
2019-02-14T09:31:44.216Z,433.6
2019-02-14T09:32:46.384Z,433.7
2019-02-14T09:33:48.763Z,433.3
2019-02-14T09:34:51.551Z,433.7
2019-02-14T09:35:54.341Z,433.5
2019-02-14T09:36:56.984Z,432.9
2019-02-14T09:39:04.155Z,432.9
2019-02-14T09:40:06.579Z,432.9
2019-02-14T09:41:09.044Z,432.7
2019-02-14T09:42:11.204Z,433
2019-02-14T09:43:13.334Z,433.1
2019-02-14T09:44:15.757Z,433.4
2019-02-14T09:45:18.215Z,433.5
2019-02-14T09:46:20.652Z,433.5
2019-02-14T09:47:22.794Z,433.7
2019-02-14T09:48:24.952Z,434.1
2019-02-14T09:49:27.399Z,434.5
2019-02-14T09:50:29.017Z,434.3
2019-02-14T09:51:31.442Z,434.9
2019-02-14T09:52:33.606Z,434.7
2019-02-14T09:53:36.036Z,434.7
2019-02-14T09:54:39.645Z,435
2019-02-14T09:55:42.093Z,434.9
2019-02-14T09:56:44.523Z,435
2019-02-14T09:57:46.693Z,435.1
2019-02-14T09:58:49.147Z,434.7
2019-02-14T09:59:51.574Z,434.4
2019-02-14T10:00:54.004Z,434
2019-02-14T10:01:56.180Z,433.7
2019-02-14T10:02:58.649Z,433.9
2019-02-14T10:04:01.071Z,433.9
2019-02-14T10:05:03.532Z,434.2
2019-02-14T10:06:05.964Z,434.1
2019-02-14T10:07:08.422Z,433.7
2019-02-14T10:09:15.594Z,433.6
2019-02-14T10:10:17.763Z,433.6
2019-02-14T10:11:19.941Z,433.6
2019-02-14T10:12:22.361Z,433.8
2019-02-14T10:13:24.796Z,433.9
2019-02-14T10:14:26.955Z,433.7
2019-02-14T10:15:29.129Z,433.9
2019-02-14T10:16:31.549Z,434.2
2019-02-14T10:17:33.402Z,434.2
2019-02-14T10:18:35.834Z,434.1
2019-02-14T10:19:38.254Z,434.1
2019-02-14T10:20:40.384Z,433.9
2019-02-14T10:21:42.544Z,433.4
2019-02-14T10:22:44.975Z,433.8
2019-02-14T10:23:47.138Z,433.5
2019-02-14T10:24:49.307Z,433.4
2019-02-14T10:25:51.760Z,433.3
2019-02-14T10:26:53.351Z,433.7
2019-02-14T10:27:55.529Z,433.6
2019-02-14T10:28:57.969Z,433.5
2019-02-14T10:30:00.507Z,434
2019-02-14T10:31:02.117Z,433.7
2019-02-14T10:32:04.533Z,433.9
2019-02-14T10:33:06.959Z,433.7
2019-02-14T10:34:09.102Z,433.8
2019-02-14T10:35:11.534Z,433.9
2019-02-14T10:36:13.695Z,433.9
2019-02-14T10:37:16.133Z,433.9
2019-02-14T10:39:22.696Z,433.7
2019-02-14T10:40:25.126Z,434.3
2019-02-14T10:41:29.770Z,434.2
2019-02-14T10:42:31.936Z,434.8
2019-02-14T10:43:35.692Z,434.7
2019-02-14T10:44:38.116Z,434.9
2019-02-14T10:45:40.544Z,435.2
2019-02-14T10:46:42.978Z,435.2
2019-02-14T10:47:45.422Z,434.6
2019-02-14T10:48:47.844Z,434.4
2019-02-14T10:49:50.280Z,434.4
2019-02-14T10:50:52.416Z,435
2019-02-14T10:51:54.345Z,435.3
2019-02-14T10:52:56.500Z,435.6
2019-02-14T10:53:58.364Z,436
2019-02-14T10:55:00.513Z,436
2019-02-14T10:56:02.941Z,436.5
2019-02-14T10:57:05.104Z,436.9
2019-02-14T10:58:06.999Z,436.6
2019-02-14T10:59:09.427Z,436.8
2019-02-14T11:00:11.863Z,436.8
2019-02-14T11:01:14.305Z,436.8
2019-02-14T11:02:16.728Z,436.3
2019-02-14T11:03:19.146Z,436.4
2019-02-14T11:04:21.590Z,435.8
2019-02-14T11:05:24.021Z,435.9
2019-02-14T11:06:26.178Z,435.5
2019-02-14T11:07:28.601Z,436.1
2019-02-14T11:09:35.754Z,436.3
2019-02-14T11:10:39.949Z,436.5
2019-02-14T11:11:42.505Z,436.7
2019-02-14T11:12:44.700Z,437
2019-02-14T11:13:46.852Z,437.3
2019-02-14T11:14:49.275Z,437.5
2019-02-14T11:15:51.720Z,437.7
2019-02-14T11:16:54.150Z,437.5
2019-02-14T11:17:56.037Z,438
2019-02-14T11:18:58.463Z,437.9
2019-02-14T11:20:00.776Z,438
2019-02-14T11:21:03.207Z,438.5
2019-02-14T11:22:05.634Z,438.5
2019-02-14T11:23:08.080Z,438.5
2019-02-14T11:24:10.508Z,438.2
2019-02-14T11:25:12.673Z,438
2019-02-14T11:26:15.102Z,437.9
2019-02-14T11:27:16.970Z,438.3
2019-02-14T11:28:19.397Z,438.5
2019-02-14T11:29:21.834Z,438.8
2019-02-14T11:30:23.984Z,439.2
2019-02-14T11:31:26.144Z,439.7
2019-02-14T11:32:28.315Z,439.9
2019-02-14T11:33:30.752Z,440.1
2019-02-14T11:34:32.900Z,440.6
2019-02-14T11:35:35.339Z,440.4
2019-02-14T11:36:37.483Z,440.7
2019-02-14T11:37:39.909Z,440.5
2019-02-14T11:38:42.630Z,440.4
2019-02-14T11:39:45.065Z,440.4
2019-02-14T11:40:47.227Z,440.3
2019-02-14T11:41:49.656Z,440.2
2019-02-14T11:42:52.084Z,440.5
2019-02-14T11:43:54.514Z,440.8
2019-02-14T11:44:56.945Z,440.9
2019-02-14T11:45:59.101Z,441.1
2019-02-14T11:47:01.537Z,440.7
2019-02-14T11:48:03.972Z,440.7
2019-02-14T11:49:06.402Z,440.7
2019-02-14T11:50:08.826Z,440.9
2019-02-14T11:51:11.267Z,440.9
2019-02-14T11:52:13.703Z,440.7
2019-02-14T11:53:16.179Z,441.1
2019-02-14T11:54:18.665Z,441.3
2019-02-14T11:55:20.676Z,441.5
2019-02-14T11:56:22.873Z,441
2019-02-14T11:57:25.330Z,441.5
2019-02-14T11:58:27.753Z,441.6
2019-02-14T11:59:29.889Z,441.9
2019-02-14T12:00:31.786Z,441.7
2019-02-14T12:01:34.219Z,442.1
2019-02-14T12:02:38.894Z,441.9
2019-02-14T12:03:41.065Z,441.7
2019-02-14T12:04:43.501Z,441.9
2019-02-14T12:05:45.660Z,441.7
2019-02-14T12:06:48.602Z,442.1
2019-02-14T12:07:50.823Z,441.8
2019-02-14T12:09:57.967Z,442
2019-02-14T12:11:00.101Z,442
2019-02-14T12:12:02.545Z,442.5
2019-02-14T12:13:04.693Z,442.4
2019-02-14T12:14:07.167Z,442.3
2019-02-14T12:15:09.593Z,441.9
2019-02-14T12:16:11.488Z,442.4
2019-02-14T12:17:13.922Z,442.2
2019-02-14T12:18:16.090Z,442.3
2019-02-14T12:19:18.512Z,442.9
2019-02-14T12:20:20.689Z,442.7
2019-02-14T12:21:22.584Z,442.4
2019-02-14T12:22:25.026Z,442.4
2019-02-14T12:23:27.196Z,442.1
2019-02-14T12:24:29.076Z,441.9
2019-02-14T12:25:31.543Z,442.2
2019-02-14T12:26:34.036Z,442.2
2019-02-14T12:27:36.466Z,442
2019-02-14T12:28:38.904Z,442.2
2019-02-14T12:29:41.339Z,442.3
2019-02-14T12:30:43.245Z,442.6
2019-02-14T12:31:45.414Z,443.1
2019-02-14T12:32:47.593Z,443.4
2019-02-14T12:33:50.012Z,443.8
2019-02-14T12:34:52.448Z,443.8
2019-02-14T12:35:54.604Z,443.7
2019-02-14T12:36:57.026Z,443.7
2019-02-14T12:37:59.456Z,443.2
2019-02-14T12:40:06.590Z,442.9
2019-02-14T12:41:09.038Z,442.5
2019-02-14T12:42:10.926Z,442.5
2019-02-14T12:43:13.404Z,442.3
2019-02-14T12:44:15.293Z,442.2
2019-02-14T12:46:22.725Z,442.2
2019-02-14T12:47:25.161Z,442.7
2019-02-14T12:48:27.047Z,442.3
2019-02-14T12:49:29.199Z,442.3
2019-02-14T12:50:31.622Z,442.8
2019-02-14T12:51:33.814Z,442.4
2019-02-14T12:52:35.704Z,442.3
2019-02-14T12:53:37.573Z,442.4
2019-02-14T12:54:40.005Z,442.1
2019-02-14T12:55:42.154Z,442.5
2019-02-14T12:56:44.616Z,442.7
2019-02-14T12:58:01.437Z,443.3
2019-02-14T12:59:03.875Z,443.2
2019-02-14T13:00:05.871Z,443.3
2019-02-14T13:01:08.005Z,443.8
2019-02-14T13:02:10.440Z,443.7
2019-02-14T13:03:12.864Z,444.2
2019-02-14T13:04:14.731Z,444.8
2019-02-14T13:05:17.155Z,445.1
2019-02-14T13:06:19.591Z,444.9
2019-02-14T13:07:22.411Z,445.4
2019-02-14T13:08:24.555Z,445.7
2019-02-14T13:09:26.999Z,445.8
2019-02-14T13:10:29.431Z,446
2019-02-14T13:11:31.316Z,445.9
2019-02-14T13:12:33.746Z,446.5
2019-02-14T13:13:35.945Z,446.4
2019-02-14T13:14:38.100Z,446.3
2019-02-14T13:15:40.530Z,446.6
2019-02-14T13:16:42.694Z,446.8
2019-02-14T13:17:44.853Z,446.8
2019-02-14T13:18:47.287Z,447
2019-02-14T13:19:49.177Z,447
2019-02-14T13:20:51.324Z,446.9
2019-02-14T13:21:53.502Z,447
2019-02-14T13:22:55.945Z,446.5
2019-02-14T13:23:58.376Z,446.6
2019-02-14T13:25:00.822Z,446.4
2019-02-14T13:26:03.267Z,446.7
2019-02-14T13:27:05.147Z,446.7
2019-02-14T13:28:07.312Z,446.7
2019-02-14T13:29:09.481Z,446.9
2019-02-14T13:30:11.921Z,447.4
2019-02-14T13:31:14.129Z,447.6
2019-02-14T13:32:16.048Z,447.9
2019-02-14T13:33:18.224Z,447.6
2019-02-14T13:34:20.369Z,447.2
2019-02-14T13:35:22.534Z,447.2
2019-02-14T13:36:24.968Z,447.2
2019-02-14T13:37:27.118Z,447.1
2019-02-14T13:38:29.299Z,447.7
2019-02-14T13:40:36.722Z,447.7
2019-02-14T13:41:39.160Z,448
2019-02-14T13:42:41.340Z,447.9
2019-02-14T13:43:43.785Z,447.9
2019-02-14T13:44:46.225Z,447.9
2019-02-14T13:45:48.386Z,448.2
2019-02-14T13:46:50.814Z,447.8
2019-02-14T13:47:53.246Z,447.6
2019-02-14T13:48:55.677Z,447.4
2019-02-14T13:49:57.835Z,447.4
2019-02-14T13:50:59.990Z,447.7
2019-02-14T13:52:02.150Z,447.4
2019-02-14T13:53:04.294Z,447.3
2019-02-14T13:54:06.190Z,447.5
2019-02-14T13:55:08.670Z,447.3
2019-02-14T13:56:11.096Z,447.1
2019-02-14T13:57:13.257Z,446.9
2019-02-14T13:58:15.391Z,446.7